You are not logged in, Click here to log in
ICAO: ZSPD Country: 中國上海市浦東新區
Latitude: 31.1443 Longitude: 121.808
Total Arrivals: 86 Total Departures: 84
Latest Arrival: FE15862 (RCKH-ZSPD)Stone. Chang Latest Departure: CZ3686 (ZSPD-ZYTL)CHU. CHUHAO
Scenery:
METAR : ZSPD 262030Z VRB01MPS 9999 BKN011 23/22 Q1002 NOSIG

上海浦東國際機場PVG